Terminal Aerodrome Forecast
Issued by NWS Austin/San Antonio, TX

Home | Current Version | Previous Version | Text Only | Print | Product List | Glossary On
Versions: 1 2 3 4 5 6 7 8 9 10 11 12 13 14 15 16 17 18 19 20 21 22 23 24 25 26 27
000
FTUS44 KEWX 180900 AAA
TAFDRT
TAF AMD
KDRT 180929Z 1809/1906 30005KT 2SM BR OVC004
     FM181200 31003KT 1SM BR OVC004
     FM181600 31004KT P6SM OVC007
     FM181900 33005KT P6SM OVC035
     FM190300 11003KT P6SM OVC015 PROB30 1903/1906 5SM SHRA BR
      OVC010=

USA.gov is the U.S. government's official web portal to all federal, state and local government web resources and services.